Time;durP1;ratioP1;P1;durP2;ratioP2;P2;SDS_P1;SDS_P2;PMS_P1;PMS_P2;Temp;Humidity;BMP_temperature;BMP_pressure;BME280_temperature;BME280_humidity;BME280_pressure;Samples;Min_cycle;Max_cycle;Signal;HPM_P1;HPM_P2
2020/12/04 00:00:13;;;;;;;11.43;8.33;;;;;;;;;;5023595;28;20193;-73
2020/12/04 00:02:39;;;;;;;12.87;8.80;;;;;;;;;;5033107;28;20263;-72
2020/12/04 00:05:06;;;;;;;13.73;8.87;;;;;;;;;;5022696;28;20276;-73
2020/12/04 00:07:31;;;;;;;11.57;8.60;;;;;;;;;;5033782;28;20209;-72
2020/12/04 00:09:57;;;;;;;11.93;8.50;;;;;;;;;;5023515;28;20197;-71
2020/12/04 00:12:22;;;;;;;13.90;8.47;;;;;;;;;;5022775;28;20204;-71
2020/12/04 00:14:48;;;;;;;13.43;8.10;;;;;;;;;;5022408;28;20193;-72
2020/12/04 00:17:13;;;;;;;11.73;7.73;;;;;;;;;;5034793;28;20296;-71
2020/12/04 00:19:38;;;;;;;11.80;7.97;;;;;;;;;;5023680;28;20197;-71
2020/12/04 00:22:04;;;;;;;12.30;8.63;;;;;;;;;;5032925;28;20220;-72
2020/12/04 00:24:29;;;;;;;12.27;8.07;;;;;;;;;;5027024;28;20696;-72
2020/12/04 00:26:58;;;;;;;12.77;8.73;;;;;;;;;;5028506;28;20247;-73
2020/12/04 00:29:26;;;;;;;11.70;8.40;;;;;;;;;;5032427;28;20200;-73
2020/12/04 00:31:51;;;;;;;14.37;9.27;;;;;;;;;;5024705;28;20193;-73
2020/12/04 00:34:17;;;;;;;13.63;8.87;;;;;;;;;;5031762;28;20240;-73
2020/12/04 00:36:45;;;;;;;14.40;8.77;;;;;;;;;;5024280;28;21271;-73
2020/12/04 00:39:11;;;;;;;12.57;8.40;;;;;;;;;;5032897;28;20208;-73
2020/12/04 00:41:36;;;;;;;12.87;8.83;;;;;;;;;;5024057;28;20186;-73
2020/12/04 00:44:01;;;;;;;14.57;8.93;;;;;;;;;;5032852;28;20280;-73
2020/12/04 00:46:27;;;;;;;14.13;9.43;;;;;;;;;;5040671;28;20188;-73
2020/12/04 00:48:52;;;;;;;15.90;9.63;;;;;;;;;;5046808;28;20859;-73
2020/12/04 00:51:17;;;;;;;13.10;9.40;;;;;;;;;;5035635;28;20185;-73
2020/12/04 00:53:43;;;;;;;15.43;9.67;;;;;;;;;;5064215;28;20181;-73
2020/12/04 00:56:08;;;;;;;14.10;9.57;;;;;;;;;;5045042;28;20235;-73
2020/12/04 00:58:33;;;;;;;15.80;9.90;;;;;;;;;;5040879;28;20181;-72
2020/12/04 01:01:00;;;;;;;15.20;10.17;;;;;;;;;;5049200;28;20664;-73
2020/12/04 01:03:26;;;;;;;18.10;10.17;;;;;;;;;;5036295;28;20200;-73
2020/12/04 01:05:51;;;;;;;14.77;10.10;;;;;;;;;;5050206;28;20181;-73
2020/12/04 01:08:16;;;;;;;14.40;9.83;;;;;;;;;;5037924;28;20209;-73
2020/12/04 01:10:42;;;;;;;16.43;10.47;;;;;;;;;;5049554;28;20182;-73
2020/12/04 01:13:07;;;;;;;16.03;10.10;;;;;;;;;;5038037;28;20193;-72
2020/12/04 01:15:32;;;;;;;16.63;10.67;;;;;;;;;;5048703;28;20536;-73
2020/12/04 01:17:58;;;;;;;16.30;10.53;;;;;;;;;;5038009;28;20229;-72
2020/12/04 01:20:23;;;;;;;17.00;10.63;;;;;;;;;;5046246;28;20238;-73
2020/12/04 01:22:48;;;;;;;17.90;10.13;;;;;;;;;;5039036;28;20276;-73
2020/12/04 01:25:14;;;;;;;16.53;10.70;;;;;;;;;;5046638;28;20235;-73
2020/12/04 01:27:39;;;;;;;15.90;10.13;;;;;;;;;;5041545;28;20182;-73
2020/12/04 01:30:04;;;;;;;16.40;10.40;;;;;;;;;;5049286;28;20185;-73
2020/12/04 01:32:29;;;;;;;20.47;11.23;;;;;;;;;;5051065;28;20302;-73
2020/12/04 01:34:55;;;;;;;16.93;10.73;;;;;;;;;;5042869;28;20309;-73
2020/12/04 01:37:20;;;;;;;16.83;9.87;;;;;;;;;;5049690;28;20218;-73
2020/12/04 01:39:45;;;;;;;14.40;9.93;;;;;;;;;;5044688;28;20186;-73
2020/12/04 01:42:11;;;;;;;16.70;10.97;;;;;;;;;;5049882;28;20273;-73
2020/12/04 01:44:36;;;;;;;15.87;10.97;;;;;;;;;;5035179;28;20196;-73
2020/12/04 01:47:01;;;;;;;15.70;10.23;;;;;;;;;;5048511;28;20213;-73
2020/12/04 01:49:27;;;;;;;15.30;10.80;;;;;;;;;;5039882;28;20231;-73
2020/12/04 01:51:54;;;;;;;17.60;10.80;;;;;;;;;;5051379;28;20605;-73
2020/12/04 01:54:21;;;;;;;17.83;10.47;;;;;;;;;;5045062;28;20682;-73
2020/12/04 01:56:47;;;;;;;17.13;10.57;;;;;;;;;;5049093;28;20271;-73
2020/12/04 01:59:13;;;;;;;15.50;10.90;;;;;;;;;;5051914;28;20684;-73
2020/12/04 02:01:42;;;;;;;16.07;10.37;;;;;;;;;;5042743;28;20189;-73
2020/12/04 02:04:08;;;;;;;15.40;9.93;;;;;;;;;;5050654;28;20185;-73
2020/12/04 02:06:49;;;;;;;15.83;10.17;;;;;;;;;;5039606;28;20177;-73
2020/12/04 02:09:25;;;;;;;15.43;10.30;;;;;;;;;;5055498;28;20187;-73
2020/12/04 02:11:53;;;;;;;16.17;10.80;;;;;;;;;;5039706;28;20189;-73
2020/12/04 02:14:18;;;;;;;17.87;10.50;;;;;;;;;;5052643;28;20185;-73
2020/12/04 02:16:46;;;;;;;14.57;10.07;;;;;;;;;;5040514;28;20251;-73
2020/12/04 02:19:11;;;;;;;15.67;10.50;;;;;;;;;;5051173;28;20727;-73
2020/12/04 02:21:37;;;;;;;16.10;10.27;;;;;;;;;;5040001;28;20186;-73
2020/12/04 02:24:03;;;;;;;16.30;10.37;;;;;;;;;;5050193;28;20217;-73
2020/12/04 02:26:29;;;;;;;17.27;10.57;;;;;;;;;;5040019;28;20272;-73
2020/12/04 02:28:54;;;;;;;16.00;10.47;;;;;;;;;;5050909;28;20260;-73
2020/12/04 02:31:21;;;;;;;14.83;9.93;;;;;;;;;;5040283;28;20205;-73
2020/12/04 02:33:47;;;;;;;14.57;10.20;;;;;;;;;;5049369;28;20835;-73
2020/12/04 02:36:12;;;;;;;14.43;9.23;;;;;;;;;;5041508;28;20280;-73
2020/12/04 02:38:38;;;;;;;16.13;9.30;;;;;;;;;;5047156;28;20181;-73
2020/12/04 02:41:06;;;;;;;16.93;9.53;;;;;;;;;;5046483;28;20182;-73
2020/12/04 02:43:31;;;;;;;14.43;9.43;;;;;;;;;;5041582;28;20185;-73
2020/12/04 02:45:57;;;;;;;14.40;9.50;;;;;;;;;;5048669;28;20184;-73
2020/12/04 02:48:22;;;;;;;15.23;9.67;;;;;;;;;;5043278;28;20181;-73
2020/12/04 02:50:47;;;;;;;13.90;9.57;;;;;;;;;;5047482;28;20193;-73
2020/12/04 02:53:13;;;;;;;13.00;8.63;;;;;;;;;;5039304;28;20193;-71
2020/12/04 02:55:38;;;;;;;16.20;9.70;;;;;;;;;;5049245;28;20220;-72
2020/12/04 02:58:03;;;;;;;14.13;9.00;;;;;;;;;;5039134;28;20213;-72
2020/12/04 03:00:29;;;;;;;14.30;9.00;;;;;;;;;;5045926;28;20181;-72
2020/12/04 03:02:54;;;;;;;15.20;9.77;;;;;;;;;;5040384;28;20193;-72
2020/12/04 03:05:19;;;;;;;13.80;8.97;;;;;;;;;;5048746;28;20177;-72
2020/12/04 03:07:45;;;;;;;15.90;10.13;;;;;;;;;;5045182;28;20205;-72
2020/12/04 03:10:11;;;;;;;12.10;8.50;;;;;;;;;;5037941;28;20170;-72
2020/12/04 03:12:37;;;;;;;12.83;8.47;;;;;;;;;;5047294;28;20189;-72
2020/12/04 03:15:03;;;;;;;13.40;8.80;;;;;;;;;;5038797;28;20272;-72
2020/12/04 03:17:29;;;;;;;12.87;8.67;;;;;;;;;;5047783;28;20214;-72
2020/12/04 03:19:56;;;;;;;12.77;8.53;;;;;;;;;;5040196;28;20715;-71
2020/12/04 03:22:22;;;;;;;13.47;8.43;;;;;;;;;;5047870;28;20192;-72
2020/12/04 03:24:48;;;;;;;15.97;9.20;;;;;;;;;;5039969;28;20189;-72
2020/12/04 03:27:13;;;;;;;12.40;8.23;;;;;;;;;;5050553;28;20201;-72
2020/12/04 03:29:38;;;;;;;12.23;8.10;;;;;;;;;;5035223;28;20239;-72
2020/12/04 03:32:04;;;;;;;13.57;8.37;;;;;;;;;;5049143;28;20213;-72
2020/12/04 03:34:29;;;;;;;13.70;8.53;;;;;;;;;;5035975;28;20259;-72
2020/12/04 03:36:55;;;;;;;12.37;7.83;;;;;;;;;;5044721;28;20206;-72
2020/12/04 03:39:20;;;;;;;12.07;8.27;;;;;;;;;;5040813;28;20687;-72
2020/12/04 03:41:45;;;;;;;11.93;7.83;;;;;;;;;;5045530;28;20194;-71
2020/12/04 03:44:11;;;;;;;11.10;8.10;;;;;;;;;;5045137;28;20212;-72
2020/12/04 03:46:36;;;;;;;11.57;7.70;;;;;;;;;;5035686;28;20189;-72
2020/12/04 03:49:01;;;;;;;12.37;8.23;;;;;;;;;;5045958;28;20193;-72
2020/12/04 03:51:27;;;;;;;12.30;8.00;;;;;;;;;;5037550;28;20193;-72
2020/12/04 03:53:52;;;;;;;14.57;8.03;;;;;;;;;;5044044;28;20181;-72
2020/12/04 03:56:17;;;;;;;11.53;8.07;;;;;;;;;;5038942;28;20209;-72
2020/12/04 03:58:43;;;;;;;12.70;8.47;;;;;;;;;;5046272;28;20551;-72
2020/12/04 04:01:08;;;;;;;12.23;7.77;;;;;;;;;;5039440;28;20280;-72
2020/12/04 04:03:34;;;;;;;10.97;8.20;;;;;;;;;;5047760;28;20242;-72
2020/12/04 04:05:59;;;;;;;10.70;7.10;;;;;;;;;;5041816;28;20582;-72
2020/12/04 04:08:24;;;;;;;12.67;8.03;;;;;;;;;;5040084;28;20203;-72
2020/12/04 04:10:50;;;;;;;12.40;8.20;;;;;;;;;;5050530;28;20188;-72
2020/12/04 04:13:15;;;;;;;10.50;7.50;;;;;;;;;;5037731;28;20178;-72
2020/12/04 04:15:40;;;;;;;12.63;8.13;;;;;;;;;;5045164;28;20656;-72
2020/12/04 04:18:06;;;;;;;12.60;8.00;;;;;;;;;;5034174;28;20201;-72
2020/12/04 04:20:32;;;;;;;11.83;7.90;;;;;;;;;;5045179;28;20178;-73
2020/12/04 04:22:57;;;;;;;12.77;8.23;;;;;;;;;;5041226;28;20192;-72
2020/12/04 04:25:23;;;;;;;12.60;7.83;;;;;;;;;;5045969;28;20185;-72
2020/12/04 04:27:48;;;;;;;11.33;7.37;;;;;;;;;;5039630;28;20186;-72
2020/12/04 04:30:13;;;;;;;10.87;7.17;;;;;;;;;;5046799;28;20198;-72
2020/12/04 04:32:39;;;;;;;9.10;6.63;;;;;;;;;;5036277;28;20217;-72
2020/12/04 04:35:05;;;;;;;12.17;7.33;;;;;;;;;;5048974;28;20228;-72
2020/12/04 04:37:30;;;;;;;10.53;7.30;;;;;;;;;;5038826;28;20208;-72
2020/12/04 04:39:56;;;;;;;10.80;7.40;;;;;;;;;;5047345;28;20181;-73
2020/12/04 04:42:22;;;;;;;11.13;7.03;;;;;;;;;;5045727;28;20212;-72
2020/12/04 04:44:47;;;;;;;10.70;6.93;;;;;;;;;;5039435;28;20185;-72
2020/12/04 04:47:18;;;;;;;10.47;7.23;;;;;;;;;;5048524;28;20177;-72
2020/12/04 04:49:49;;;;;;;10.17;6.63;;;;;;;;;;5039856;28;20186;-73
2020/12/04 04:52:15;;;;;;;12.37;7.73;;;;;;;;;;5040574;28;20227;-72
2020/12/04 04:54:49;;;;;;;8.67;6.93;;;;;;;;;;5039152;28;20190;-72
2020/12/04 04:57:19;;;;;;;9.47;6.33;;;;;;;;;;5050483;28;20202;-72
2020/12/04 04:59:44;;;;;;;11.07;7.40;;;;;;;;;;5044390;28;20265;-72
2020/12/04 05:02:14;;;;;;;12.97;7.07;;;;;;;;;;5052083;28;20189;-72
2020/12/04 05:04:56;;;;;;;12.03;7.83;;;;;;;;;;5042852;28;20190;-72
2020/12/04 05:07:30;;;;;;;12.00;8.00;;;;;;;;;;5046594;28;20285;-72
2020/12/04 05:10:20;;;;;;;9.87;6.97;;;;;;;;;;5041552;28;20216;-72
2020/12/04 05:13:00;;;;;;;10.47;7.00;;;;;;;;;;5043028;28;20632;-72
2020/12/04 05:15:26;;;;;;;10.30;6.83;;;;;;;;;;5042956;28;20275;-72
2020/12/04 05:18:22;;;;;;;12.70;7.90;;;;;;;;;;5050444;28;20737;-72
2020/12/04 05:20:52;;;;;;;10.70;6.83;;;;;;;;;;5043545;28;20197;-72
2020/12/04 05:23:18;;;;;;;8.93;6.57;;;;;;;;;;5044860;28;20270;-72
2020/12/04 05:25:48;;;;;;;10.73;7.83;;;;;;;;;;5040423;28;20189;-72
2020/12/04 05:28:18;;;;;;;9.83;6.63;;;;;;;;;;5052841;28;20205;-72
2020/12/04 05:30:45;;;;;;;9.73;6.90;;;;;;;;;;5039776;28;20223;-72
2020/12/04 05:33:11;;;;;;;10.00;6.43;;;;;;;;;;5050631;28;20226;-72
2020/12/04 05:35:38;;;;;;;12.03;7.20;;;;;;;;;;5040771;28;20207;-72
2020/12/04 05:38:12;;;;;;;8.83;6.13;;;;;;;;;;5051544;28;20214;-72
2020/12/04 05:40:39;;;;;;;10.03;6.63;;;;;;;;;;5039807;28;20181;-72
2020/12/04 05:43:05;;;;;;;10.50;7.07;;;;;;;;;;5049008;28;20264;-72
2020/12/04 05:45:31;;;;;;;8.03;5.70;;;;;;;;;;4349410;28;10000740;-73
2020/12/04 05:47:57;;;;;;;10.37;6.97;;;;;;;;;;5036458;28;20625;-73
2020/12/04 05:50:23;;;;;;;8.00;6.07;;;;;;;;;;5047106;28;20185;-73
2020/12/04 05:52:49;;;;;;;8.90;6.20;;;;;;;;;;5038524;28;20217;-73
2020/12/04 05:55:15;;;;;;;7.73;5.80;;;;;;;;;;5047114;28;20209;-72
2020/12/04 05:57:54;;;;;;;8.87;5.90;;;;;;;;;;5035875;28;20209;-73
2020/12/04 06:00:20;;;;;;;7.67;5.47;;;;;;;;;;5047102;28;20185;-73
2020/12/04 06:02:55;;;;;;;7.93;5.60;;;;;;;;;;5034070;28;20240;-73
2020/12/04 06:05:23;;;;;;;8.50;5.50;;;;;;;;;;5045166;28;20180;-72
2020/12/04 06:07:48;;;;;;;8.10;5.60;;;;;;;;;;5035967;28;20202;-73
2020/12/04 06:10:14;;;;;;;8.20;5.20;;;;;;;;;;5045712;28;20548;-73
2020/12/04 06:12:39;;;;;;;7.13;5.00;;;;;;;;;;5038299;28;20185;-72
2020/12/04 06:15:25;;;;;;;8.30;5.20;;;;;;;;;;5045487;28;20635;-72
2020/12/04 06:17:51;;;;;;;7.90;5.00;;;;;;;;;;5034462;28;20211;-72
2020/12/04 06:20:21;;;;;;;8.17;5.20;;;;;;;;;;5047299;28;20198;-73
2020/12/04 06:23:06;;;;;;;8.40;4.97;;;;;;;;;;5036720;28;20182;-72
2020/12/04 06:25:55;;;;;;;6.07;4.53;;;;;;;;;;5047552;28;20957;-73
2020/12/04 06:28:40;;;;;;;5.83;4.63;;;;;;;;;;5033322;28;20268;-72
2020/12/04 06:31:13;;;;;;;5.53;4.17;;;;;;;;;;5045282;28;20205;-72
2020/12/04 06:33:47;;;;;;;8.53;5.00;;;;;;;;;;5037443;28;20217;-72
2020/12/04 06:36:30;;;;;;;7.03;4.93;;;;;;;;;;5046518;28;20208;-72
2020/12/04 06:38:56;;;;;;;10.00;4.97;;;;;;;;;;5036158;28;20631;-72
2020/12/04 06:41:25;;;;;;;7.73;4.70;;;;;;;;;;5047088;28;20676;-72
2020/12/04 06:43:55;;;;;;;5.77;3.97;;;;;;;;;;5041588;28;20174;-73
2020/12/04 06:46:26;;;;;;;7.00;4.43;;;;;;;;;;5046640;28;20188;-73
2020/12/04 06:49:10;;;;;;;5.73;4.23;;;;;;;;;;5043351;28;20287;-73
2020/12/04 06:51:40;;;;;;;6.77;4.57;;;;;;;;;;5046974;28;20231;-73
2020/12/04 06:54:06;;;;;;;6.83;4.50;;;;;;;;;;5045794;28;20615;-73
2020/12/04 06:56:34;;;;;;;8.18;4.32;;;;;;;;;;4769742;28;10001062;-73
2020/12/04 06:59:00;;;;;;;6.50;4.53;;;;;;;;;;5044296;28;20796;-73
2020/12/04 07:01:25;;;;;;;7.67;4.03;;;;;;;;;;5025521;28;20589;-73
2020/12/04 07:03:55;;;;;;;7.40;4.50;;;;;;;;;;5038683;28;20287;-73
2020/12/04 07:06:22;;;;;;;5.53;3.73;;;;;;;;;;5044394;28;20185;-73
2020/12/04 07:09:02;;;;;;;6.70;4.40;;;;;;;;;;5043977;28;20899;-73
2020/12/04 07:11:28;;;;;;;5.47;4.40;;;;;;;;;;5030475;28;20267;-73
2020/12/04 07:13:53;;;;;;;6.40;4.03;;;;;;;;;;5044031;28;20234;-73
2020/12/04 07:16:19;;;;;;;5.90;3.90;;;;;;;;;;5037324;28;20586;-73
2020/12/04 07:18:53;;;;;;;6.23;4.20;;;;;;;;;;5044392;28;20626;-73
2020/12/04 07:21:25;;;;;;;7.37;4.30;;;;;;;;;;5034490;28;20618;-72
2020/12/04 07:23:52;;;;;;;6.77;4.03;;;;;;;;;;5048034;28;20254;-72
2020/12/04 07:26:19;;;;;;;6.43;4.23;;;;;;;;;;5038302;28;20193;-73
2020/12/04 07:28:45;;;;;;;6.43;3.90;;;;;;;;;;5049194;28;20260;-73
2020/12/04 07:31:16;;;;;;;5.50;3.80;;;;;;;;;;5037733;28;20331;-73
2020/12/04 07:33:58;;;;;;;6.10;4.03;;;;;;;;;;5047886;28;20700;-73
2020/12/04 07:36:25;;;;;;;7.03;3.83;;;;;;;;;;5037533;28;20177;-73
2020/12/04 07:38:56;;;;;;;5.33;3.83;;;;;;;;;;5050704;28;20241;-72
2020/12/04 07:41:28;;;;;;;5.30;3.73;;;;;;;;;;5044295;28;20557;-72
2020/12/04 07:44:06;;;;;;;6.23;4.10;;;;;;;;;;5043354;28;20660;-73
2020/12/04 07:46:35;;;;;;;8.40;4.17;;;;;;;;;;5041458;28;20224;-73
2020/12/04 07:49:05;;;;;;;6.53;3.47;;;;;;;;;;5037963;28;20208;-73
2020/12/04 07:51:32;;;;;;;5.17;3.40;;;;;;;;;;5047271;28;20212;-73
2020/12/04 07:53:59;;;;;;;7.57;3.50;;;;;;;;;;5037895;28;20197;-73
2020/12/04 07:56:26;;;;;;;5.07;3.30;;;;;;;;;;5047931;28;20647;-73
2020/12/04 07:59:24;;;;;;;4.80;3.27;;;;;;;;;;5035385;28;20181;-72
2020/12/04 08:01:49;;;;;;;7.20;3.57;;;;;;;;;;5045397;28;20197;-72
2020/12/04 08:04:18;;;;;;;8.23;3.50;;;;;;;;;;5037001;28;20274;-72
2020/12/04 08:06:48;;;;;;;5.53;3.40;;;;;;;;;;5048750;28;20258;-73
2020/12/04 08:09:16;;;;;;;4.77;3.20;;;;;;;;;;5053704;28;20196;-72
2020/12/04 08:11:54;;;;;;;3.67;2.80;;;;;;;;;;5038334;28;20538;-72
2020/12/04 08:14:27;;;;;;;4.83;2.97;;;;;;;;;;5040397;28;20264;-72
2020/12/04 08:16:54;;;;;;;4.43;3.00;;;;;;;;;;5048126;28;20319;-72
2020/12/04 08:19:23;;;;;;;4.13;3.00;;;;;;;;;;5036046;28;20196;-71
2020/12/04 08:22:07;;;;;;;5.27;3.17;;;;;;;;;;5047800;28;20189;-71
2020/12/04 08:25:02;;;;;;;4.03;2.60;;;;;;;;;;5037013;28;20667;-71
2020/12/04 08:27:27;;;;;;;5.30;2.70;;;;;;;;;;5049612;28;20262;-72
2020/12/04 08:30:17;;;;;;;4.13;2.80;;;;;;;;;;5035442;28;20220;-74
2020/12/04 08:33:00;;;;;;;3.47;2.60;;;;;;;;;;5046292;28;20760;-72
2020/12/04 08:35:33;;;;;;;4.57;2.60;;;;;;;;;;5037416;28;20204;-72
2020/12/04 08:38:14;;;;;;;3.33;2.67;;;;;;;;;;5051346;28;20688;-71
2020/12/04 08:40:53;;;;;;;4.73;2.70;;;;;;;;;;5042411;28;20212;-71
2020/12/04 08:43:21;;;;;;;2.83;2.30;;;;;;;;;;5052725;28;20189;-71
2020/12/04 08:45:49;;;;;;;4.43;2.33;;;;;;;;;;5041832;28;20181;-71
2020/12/04 08:48:20;;;;;;;3.90;2.20;;;;;;;;;;5052644;28;20206;-71
2020/12/04 08:50:48;;;;;;;3.80;2.07;;;;;;;;;;5042849;28;20633;-72
2020/12/04 08:53:16;;;;;;;3.70;2.23;;;;;;;;;;5066703;28;20181;-71
2020/12/04 08:55:49;;;;;;;3.87;2.20;;;;;;;;;;5043600;28;21328;-71
2020/12/04 08:58:15;;;;;;;3.07;2.00;;;;;;;;;;5049717;28;20296;-72
2020/12/04 09:00:42;;;;;;;3.57;2.10;;;;;;;;;;5044026;28;20243;-71
2020/12/04 09:03:07;;;;;;;3.33;2.10;;;;;;;;;;5051342;28;20182;-72
2020/12/04 09:05:32;;;;;;;2.50;1.90;;;;;;;;;;5053554;28;20186;-71
2020/12/04 09:07:58;;;;;;;2.50;1.80;;;;;;;;;;5037958;28;20198;-71
2020/12/04 09:10:23;;;;;;;2.53;1.80;;;;;;;;;;5049906;28;20182;-72
2020/12/04 09:12:49;;;;;;;3.60;1.80;;;;;;;;;;5043264;28;20185;-71
2020/12/04 09:15:16;;;;;;;2.67;1.60;;;;;;;;;;5052322;28;20185;-72
2020/12/04 09:17:42;;;;;;;1.73;1.50;;;;;;;;;;5041157;28;20198;-71
2020/12/04 09:20:09;;;;;;;1.70;1.60;;;;;;;;;;5053693;28;20259;-72
2020/12/04 09:22:36;;;;;;;3.17;1.43;;;;;;;;;;5042474;28;20189;-72
2020/12/04 09:25:04;;;;;;;2.40;1.43;;;;;;;;;;5052270;28;20181;-72
2020/12/04 09:27:30;;;;;;;2.03;1.67;;;;;;;;;;5042278;28;20228;-71
2020/12/04 09:29:55;;;;;;;2.33;1.80;;;;;;;;;;5064880;28;20687;-71
2020/12/04 09:32:21;;;;;;;2.07;1.87;;;;;;;;;;5040818;28;24321;-72
2020/12/04 09:34:48;;;;;;;4.47;2.07;;;;;;;;;;5053285;28;20184;-72
2020/12/04 09:37:20;;;;;;;3.00;1.60;;;;;;;;;;5051986;28;20212;-72
2020/12/04 09:39:48;;;;;;;1.63;1.40;;;;;;;;;;5051259;28;20242;-72
2020/12/04 09:42:15;;;;;;;1.73;1.33;;;;;;;;;;5049982;28;20264;-72
2020/12/04 09:44:42;;;;;;;2.10;1.37;;;;;;;;;;5041614;28;20181;-72
2020/12/04 09:47:08;;;;;;;1.37;1.10;;;;;;;;;;5050507;28;20337;-72
2020/12/04 09:49:34;;;;;;;2.47;1.60;;;;;;;;;;5044249;28;20265;-72
2020/12/04 09:51:59;;;;;;;1.80;1.40;;;;;;;;;;5049481;28;20199;-72
2020/12/04 09:54:27;;;;;;;2.03;1.60;;;;;;;;;;5039878;28;20601;-72
2020/12/04 09:56:54;;;;;;;1.33;1.17;;;;;;;;;;5049024;28;20253;-72
2020/12/04 09:59:20;;;;;;;1.33;0.90;;;;;;;;;;5040315;28;20181;-72
2020/12/04 10:01:48;;;;;;;1.97;1.20;;;;;;;;;;5050387;28;20288;-72
2020/12/04 10:04:13;;;;;;;1.50;1.00;;;;;;;;;;5042601;28;20228;-72
2020/12/04 10:06:39;;;;;;;1.50;0.93;;;;;;;;;;5048912;28;20169;-72
2020/12/04 10:09:04;;;;;;;0.97;0.87;;;;;;;;;;5041056;28;20247;-72
2020/12/04 10:11:30;;;;;;;1.10;1.00;;;;;;;;;;5052649;28;20663;-72
2020/12/04 10:13:55;;;;;;;1.50;1.20;;;;;;;;;;5049306;28;20554;-72
2020/12/04 10:16:20;;;;;;;1.20;1.10;;;;;;;;;;5041913;28;20624;-72
2020/12/04 10:18:45;;;;;;;3.10;1.03;;;;;;;;;;5046806;28;20186;-72
2020/12/04 10:21:11;;;;;;;3.23;1.20;;;;;;;;;;5040611;28;20185;-72
2020/12/04 10:23:36;;;;;;;1.43;0.80;;;;;;;;;;5050811;28;20188;-72
2020/12/04 10:26:01;;;;;;;2.00;1.00;;;;;;;;;;5039878;28;20589;-72
2020/12/04 10:28:28;;;;;;;1.83;0.90;;;;;;;;;;5051745;28;20185;-72
2020/12/04 10:30:54;;;;;;;1.40;0.77;;;;;;;;;;5039874;28;20181;-72
2020/12/04 10:33:19;;;;;;;1.37;1.10;;;;;;;;;;5050006;28;20708;-72
2020/12/04 10:35:45;;;;;;;2.37;1.13;;;;;;;;;;5041209;28;20192;-72
2020/12/04 10:38:10;;;;;;;1.60;0.90;;;;;;;;;;5052006;28;20538;-72
2020/12/04 10:40:36;;;;;;;1.40;0.90;;;;;;;;;;5039636;28;20220;-72
2020/12/04 10:43:01;;;;;;;1.67;1.00;;;;;;;;;;5063053;28;20182;-72
2020/12/04 10:45:26;;;;;;;1.63;0.90;;;;;;;;;;5045746;28;20201;-71
2020/12/04 10:47:52;;;;;;;1.83;0.93;;;;;;;;;;5040460;28;20192;-71
2020/12/04 10:50:17;;;;;;;4.83;1.20;;;;;;;;;;5065369;28;20188;-71
2020/12/04 10:52:42;;;;;;;1.87;0.90;;;;;;;;;;5042624;28;20641;-71
2020/12/04 10:55:08;;;;;;;1.73;0.90;;;;;;;;;;5044092;28;20636;-71
2020/12/04 10:57:33;;;;;;;1.40;0.80;;;;;;;;;;5038895;28;20688;-71
2020/12/04 10:59:58;;;;;;;1.80;0.73;;;;;;;;;;5049680;28;20178;-71
2020/12/04 11:02:30;;;;;;;3.37;0.90;;;;;;;;;;5038634;28;20185;-71
2020/12/04 11:07:39;;;;;;;1.37;0.83;;;;;;;;;;5037308;28;20215;-71
2020/12/04 11:10:04;;;;;;;1.73;0.60;;;;;;;;;;5048487;28;20189;-71
2020/12/04 11:12:30;;;;;;;1.10;0.57;;;;;;;;;;5041534;28;20197;-71
2020/12/04 11:14:55;;;;;;;2.27;0.80;;;;;;;;;;5051431;28;20177;-71
2020/12/04 11:17:20;;;;;;;0.97;0.53;;;;;;;;;;5038877;28;20299;-71
2020/12/04 11:19:46;;;;;;;1.50;0.60;;;;;;;;;;5049250;28;20193;-70
2020/12/04 11:22:11;;;;;;;3.93;0.60;;;;;;;;;;5050995;28;20189;-71
2020/12/04 11:24:36;;;;;;;1.57;0.50;;;;;;;;;;5035492;28;20232;-71
2020/12/04 11:27:02;;;;;;;1.73;0.60;;;;;;;;;;5047752;28;20174;-71
2020/12/04 11:29:27;;;;;;;1.93;0.70;;;;;;;;;;5042164;28;20220;-71
2020/12/04 11:31:52;;;;;;;1.47;0.60;;;;;;;;;;5047141;28;20732;-70
2020/12/04 11:34:18;;;;;;;1.07;0.77;;;;;;;;;;5039609;28;20728;-71
2020/12/04 11:36:43;;;;;;;7.10;0.80;;;;;;;;;;5047445;28;20206;-71
2020/12/04 11:39:08;;;;;;;1.00;0.70;;;;;;;;;;5041023;28;20272;-71
2020/12/04 11:41:34;;;;;;;2.77;1.20;;;;;;;;;;5047241;28;20272;-72
2020/12/04 11:43:59;;;;;;;1.03;0.67;;;;;;;;;;5038065;28;20277;-72
2020/12/04 11:46:24;;;;;;;2.17;0.80;;;;;;;;;;5048203;28;20177;-72
2020/12/04 11:48:50;;;;;;;0.80;0.70;;;;;;;;;;5038154;28;20588;-72
2020/12/04 11:51:15;;;;;;;2.22;1.00;;;;;;;;;;5044381;28;20534;-72
2020/12/04 11:53:40;;;;;;;1.42;0.80;;;;;;;;;;5046075;28;20277;-72
2020/12/04 11:56:06;;;;;;;1.20;0.70;;;;;;;;;;5038946;28;20268;-72
2020/12/04 11:58:31;;;;;;;3.43;0.90;;;;;;;;;;5046678;28;20200;-71
2020/12/04 12:00:57;;;;;;;5.05;0.73;;;;;;;;;;5039618;28;20620;-72
2020/12/04 12:03:22;;;;;;;3.23;0.73;;;;;;;;;;5050166;28;20531;-72
2020/12/04 12:05:47;;;;;;;1.00;0.70;;;;;;;;;;5039374;28;21209;-72
2020/12/04 12:08:13;;;;;;;2.20;0.80;;;;;;;;;;5047777;28;20250;-72
2020/12/04 12:10:38;;;;;;;2.83;0.90;;;;;;;;;;5038299;28;20379;-72
2020/12/04 12:13:03;;;;;;;3.70;0.70;;;;;;;;;;5048024;28;21690;-72
2020/12/04 12:15:29;;;;;;;1.83;1.10;;;;;;;;;;5037334;28;20276;-71
2020/12/04 12:17:54;;;;;;;2.67;1.10;;;;;;;;;;5047577;28;20217;-72
2020/12/04 12:20:20;;;;;;;1.85;1.10;;;;;;;;;;5038625;28;20181;-71
2020/12/04 12:22:45;;;;;;;2.75;1.00;;;;;;;;;;5046433;28;20181;-71
2020/12/04 12:25:10;;;;;;;2.47;1.20;;;;;;;;;;5045714;28;20187;-71
2020/12/04 12:27:36;;;;;;;1.90;1.02;;;;;;;;;;5038925;28;20268;-71
2020/12/04 12:30:01;;;;;;;1.52;0.82;;;;;;;;;;5049087;28;20272;-71
2020/12/04 12:32:27;;;;;;;3.83;0.90;;;;;;;;;;5039340;28;20193;-71
2020/12/04 12:37:36;;;;;;;1.33;0.60;;;;;;;;;;5036647;28;20299;-72
2020/12/04 12:40:04;;;;;;;1.53;0.50;;;;;;;;;;5048037;28;20654;-72
2020/12/04 12:42:29;;;;;;;0.87;0.50;;;;;;;;;;5034875;28;20193;-72
2020/12/04 12:44:54;;;;;;;1.50;0.50;;;;;;;;;;5045977;28;20191;-72
2020/12/04 12:47:20;;;;;;;0.37;0.27;;;;;;;;;;5037403;28;20185;-71
2020/12/04 12:49:45;;;;;;;0.63;0.30;;;;;;;;;;5042010;28;20200;-72
2020/12/04 12:52:12;;;;;;;0.50;0.20;;;;;;;;;;5037135;28;20656;-72
2020/12/04 12:54:38;;;;;;;0.27;0.20;;;;;;;;;;5044009;28;20181;-72
2020/12/04 12:57:03;;;;;;;1.20;0.40;;;;;;;;;;5043333;28;20620;-72
2020/12/04 12:59:29;;;;;;;0.80;0.40;;;;;;;;;;5024092;28;20177;-72
2020/12/04 13:01:54;;;;;;;1.50;0.60;;;;;;;;;;5036865;28;20185;-71
2020/12/04 13:04:21;;;;;;;1.60;0.37;;;;;;;;;;5026967;28;20200;-72
2020/12/04 13:06:47;;;;;;;3.30;0.43;;;;;;;;;;5049556;28;20534;-71
2020/12/04 13:09:12;;;;;;;0.90;0.30;;;;;;;;;;5027586;28;20281;-72
2020/12/04 13:11:38;;;;;;;0.60;0.40;;;;;;;;;;5036380;28;21051;-72
2020/12/04 13:14:04;;;;;;;1.70;0.47;;;;;;;;;;5027255;28;20181;-72
2020/12/04 13:16:36;;;;;;;0.60;0.30;;;;;;;;;;5037500;28;20354;-71
2020/12/04 13:19:02;;;;;;;0.90;0.50;;;;;;;;;;5027654;28;20197;-70
2020/12/04 13:21:54;;;;;;;1.87;1.50;;;;;;;;;;5043562;28;20189;-71
2020/12/04 13:24:13;;;;;;;0.80;0.60;;;;;;;;;;5036150;28;20197;-72
2020/12/04 13:26:38;;;;;;;1.60;0.90;;;;;;;;;;5051126;28;20197;-71
2020/12/04 13:29:04;;;;;;;1.57;0.70;;;;;;;;;;5041569;28;20250;-71
2020/12/04 13:31:30;;;;;;;1.30;1.00;;;;;;;;;;5049612;28;20617;-71
2020/12/04 13:33:55;;;;;;;1.53;0.83;;;;;;;;;;5049025;28;20229;-71
2020/12/04 13:36:20;;;;;;;5.23;0.80;;;;;;;;;;5041500;28;20186;-71
2020/12/04 13:38:46;;;;;;;2.00;0.90;;;;;;;;;;5045151;28;20236;-71
2020/12/04 13:41:11;;;;;;;3.60;1.00;;;;;;;;;;5038358;28;20743;-71
2020/12/04 13:43:36;;;;;;;1.80;1.00;;;;;;;;;;5044663;28;20186;-71
2020/12/04 13:46:02;;;;;;;1.17;0.80;;;;;;;;;;5038409;28;20254;-72
2020/12/04 13:48:27;;;;;;;2.43;0.93;;;;;;;;;;5042796;28;20174;-71
2020/12/04 13:50:54;;;;;;;1.77;0.80;;;;;;;;;;5038466;28;20594;-71
2020/12/04 13:53:20;;;;;;;1.73;1.00;;;;;;;;;;5046925;28;20180;-73
2020/12/04 13:55:45;;;;;;;2.55;1.23;;;;;;;;;;5040471;28;20192;-72
2020/12/04 13:58:10;;;;;;;3.47;1.10;;;;;;;;;;5047852;28;21027;-72
2020/12/04 14:00:36;;;;;;;4.67;1.20;;;;;;;;;;5039938;28;20222;-72
2020/12/04 14:03:01;;;;;;;0.90;0.90;;;;;;;;;;5046103;28;20652;-72
2020/12/04 14:05:28;;;;;;;1.27;0.80;;;;;;;;;;5043942;28;20196;-72
2020/12/04 14:07:53;;;;;;;1.27;0.70;;;;;;;;;;5036579;28;20213;-72
2020/12/04 14:10:18;;;;;;;2.28;0.95;;;;;;;;;;5047729;28;20589;-72
2020/12/04 14:12:43;;;;;;;5.03;1.10;;;;;;;;;;5039189;28;20652;-72
2020/12/04 14:15:09;;;;;;;3.37;1.20;;;;;;;;;;5050990;28;20185;-72
2020/12/04 14:17:34;;;;;;;1.37;1.13;;;;;;;;;;5038497;28;20213;-72
2020/12/04 14:19:59;;;;;;;3.23;1.27;;;;;;;;;;5046763;28;20235;-73
2020/12/04 14:22:25;;;;;;;2.67;1.27;;;;;;;;;;5037535;28;20235;-72
2020/12/04 14:24:50;;;;;;;3.73;1.43;;;;;;;;;;5047766;28;20243;-72
2020/12/04 14:27:15;;;;;;;1.60;1.07;;;;;;;;;;5038261;28;20209;-73
2020/12/04 14:29:41;;;;;;;4.13;1.50;;;;;;;;;;5048125;28;20192;-73
2020/12/04 14:32:06;;;;;;;2.83;1.40;;;;;;;;;;5040515;28;20186;-72
2020/12/04 14:34:31;;;;;;;3.23;1.00;;;;;;;;;;5044531;28;20237;-72
2020/12/04 14:36:58;;;;;;;2.20;1.27;;;;;;;;;;5044215;28;20209;-72
2020/12/04 14:39:23;;;;;;;2.20;1.30;;;;;;;;;;5038074;28;20536;-72
2020/12/04 14:41:50;;;;;;;5.63;1.50;;;;;;;;;;5044627;28;20193;-72